Hartford, Wisconsin
Current Conditions -  °F | °C
As of 3:50 PM on Sunday 25 Jan 2015 (Local Time) from KETB Reporting Station
Clear Clear  
Wind Chill: 10°   Ceiling: Unl
Heat Index: 23°   Visibility: 10mi
Dew Point: 10°   Wind: 15mph
Humidity: 59%   Direction: 20°NNE
Pressure: 29.98"   Gusts: 23mph
Location:  43.32°N, 88.38°W
Report Text: KETB 252150Z AUTO 02013G20KT 10SM CLR M05/M12 A2998 RMK AO2
Loading
Personal Weather Stations






























Interactive Weather Map New forecast layout! Learn more

10-Day Weather Forecast

Advertisements
Track Severe Weather on mobile